createdAt,value
2018-07-07T00:00:55.221Z,89.11
2018-07-07T00:01:55.202Z,89.54
2018-07-07T00:02:55.230Z,89.67
2018-07-07T00:03:55.182Z,89.91
2018-07-07T00:04:55.228Z,90.18
2018-07-07T00:05:55.292Z,90.20
2018-07-07T00:06:55.270Z,90.23
2018-07-07T00:07:55.203Z,90.63
2018-07-07T00:08:55.238Z,90.88
2018-07-07T00:09:55.204Z,91.20
2018-07-07T00:10:55.198Z,91.38
2018-07-07T00:11:55.273Z,91.49
2018-07-07T00:12:55.273Z,91.55
2018-07-07T00:13:55.273Z,91.55
2018-07-07T00:14:55.289Z,91.63
2018-07-07T00:15:55.206Z,91.49
2018-07-07T00:16:55.207Z,91.33
2018-07-07T00:17:55.204Z,91.47
2018-07-07T00:18:55.275Z,91.86
2018-07-07T00:19:55.317Z,92.16
2018-07-07T00:20:55.246Z,92.38
2018-07-07T00:21:55.298Z,92.89
2018-07-07T00:22:55.292Z,93.26
2018-07-07T00:23:55.253Z,93.70
2018-07-07T00:24:55.282Z,94.02
2018-07-07T00:25:55.316Z,94.12
2018-07-07T00:26:55.251Z,94.26
2018-07-07T00:27:55.221Z,94.21
2018-07-07T00:28:55.252Z,94.34
2018-07-07T00:29:55.187Z,94.45
2018-07-07T00:30:55.310Z,94.37
2018-07-07T00:31:55.313Z,94.31
2018-07-07T00:32:55.286Z,94.26
2018-07-07T00:33:55.282Z,94.18
2018-07-07T00:34:55.283Z,94.40
2018-07-07T00:35:55.246Z,94.64
2018-07-07T00:36:55.247Z,94.67
2018-07-07T00:37:55.204Z,94.69
2018-07-07T00:38:55.292Z,94.69
2018-07-07T00:39:55.193Z,94.83
2018-07-07T00:40:55.230Z,94.91
2018-07-07T00:41:55.257Z,94.91
2018-07-07T00:42:55.286Z,94.91
2018-07-07T00:43:55.210Z,94.86
2018-07-07T00:44:55.228Z,94.96
2018-07-07T00:45:55.196Z,94.86
2018-07-07T00:46:55.312Z,94.77
2018-07-07T00:47:55.324Z,94.75
2018-07-07T00:48:55.296Z,95.18
2018-07-07T00:49:55.337Z,95.34
2018-07-07T00:50:55.316Z,95.83
2018-07-07T00:51:55.329Z,96.20
2018-07-07T00:52:55.267Z,96.34
2018-07-07T00:53:55.328Z,96.42
2018-07-07T00:54:55.268Z,96.55
2018-07-07T00:55:55.261Z,96.61
2018-07-07T00:56:55.298Z,96.74
2018-07-07T00:57:55.360Z,96.64
2018-07-07T00:58:55.201Z,96.58
2018-07-07T00:59:55.171Z,96.58
2018-07-07T01:00:55.375Z,96.61
2018-07-07T01:01:55.296Z,96.64
2018-07-07T01:02:55.219Z,96.72
2018-07-07T01:03:55.223Z,96.88
2018-07-07T01:04:55.180Z,96.96
2018-07-07T01:05:55.300Z,97.04
2018-07-07T01:06:55.301Z,97.12
2018-07-07T01:07:55.210Z,97.21
2018-07-07T01:08:55.301Z,97.21
2018-07-07T01:09:55.311Z,97.36
2018-07-07T01:10:55.314Z,97.23
2018-07-07T01:11:55.255Z,97.21
2018-07-07T01:12:55.311Z,97.28
2018-07-07T01:13:55.242Z,97.26
2018-07-07T01:14:55.313Z,97.45
2018-07-07T01:15:55.244Z,97.50
2018-07-07T01:16:55.245Z,97.36
2018-07-07T01:17:55.271Z,97.36
2018-07-07T01:18:55.244Z,97.28
2018-07-07T01:19:55.308Z,97.34
2018-07-07T01:20:55.191Z,97.69
2018-07-07T01:21:55.265Z,98.12
2018-07-07T01:22:55.304Z,98.48
2018-07-07T01:23:55.313Z,98.64
2018-07-07T01:24:55.233Z,98.75
2018-07-07T01:25:55.244Z,98.55
2018-07-07T01:26:55.240Z,98.53
2018-07-07T01:27:55.314Z,98.42
2018-07-07T01:28:55.321Z,98.31
2018-07-07T01:29:55.357Z,98.15
2018-07-07T01:30:55.288Z,98.12
2018-07-07T01:31:55.318Z,98.07
2018-07-07T01:32:55.355Z,98.10
2018-07-07T01:33:55.244Z,98.18
2018-07-07T01:34:55.347Z,98.04
2018-07-07T01:35:55.290Z,98.02
2018-07-07T01:36:55.263Z,98.15
2018-07-07T01:37:55.328Z,98.31
2018-07-07T01:38:55.320Z,98.50
2018-07-07T01:39:55.320Z,98.66
2018-07-07T01:40:55.250Z,98.80
2018-07-07T01:41:55.250Z,98.94
2018-07-07T01:42:55.236Z,98.96
2018-07-07T01:43:55.290Z,98.96
2018-07-07T01:44:55.253Z,98.99
2018-07-07T01:45:55.358Z,99.04
2018-07-07T01:46:55.323Z,99.07
2018-07-07T01:47:55.209Z,99.10
2018-07-07T01:48:55.256Z,99.04
2018-07-07T01:49:55.241Z,99.07
2018-07-07T01:50:55.189Z,99.02
2018-07-07T01:51:55.194Z,99.21
2018-07-07T01:52:55.284Z,99.07
2018-07-07T01:53:55.255Z,99.02
2018-07-07T01:54:55.358Z,98.96
2018-07-07T01:55:55.244Z,98.94
2018-07-07T01:56:55.197Z,98.94
2018-07-07T01:57:55.196Z,99.04
2018-07-07T01:58:55.297Z,99.21
2018-07-07T01:59:55.374Z,99.29
2018-07-07T02:00:55.338Z,99.48
2018-07-07T02:01:55.313Z,99.67
2018-07-07T02:02:55.307Z,99.72
2018-07-07T02:03:55.345Z,99.86
2018-07-07T02:04:55.248Z,99.96
2018-07-07T02:05:55.345Z,99.96
2018-07-07T02:06:55.326Z,99.86
2018-07-07T02:07:55.270Z,99.99
2018-07-07T02:08:55.274Z,99.99
2018-07-07T02:09:55.273Z,99.75
2018-07-07T02:10:55.343Z,99.75
2018-07-07T02:11:55.279Z,99.86
2018-07-07T02:12:55.338Z,99.99
2018-07-07T02:13:55.345Z,99.72
2018-07-07T02:14:55.340Z,99.72
2018-07-07T02:15:55.344Z,99.78
2018-07-07T02:16:55.273Z,99.86
2018-07-07T02:17:55.269Z,99.86
2018-07-07T02:18:55.338Z,99.99
2018-07-07T02:19:55.352Z,99.99
2018-07-07T02:20:55.273Z,99.99
2018-07-07T02:21:55.360Z,99.99
2018-07-07T02:22:55.401Z,99.99
2018-07-07T02:23:55.386Z,99.99
2018-07-07T02:24:55.386Z,99.99
2018-07-07T02:25:55.379Z,99.99
2018-07-07T02:26:55.360Z,99.99
2018-07-07T02:27:55.287Z,99.99
2018-07-07T02:28:55.323Z,99.99
2018-07-07T02:29:55.323Z,99.99
2018-07-07T02:30:55.341Z,99.99
2018-07-07T02:31:55.394Z,99.99
2018-07-07T02:32:55.361Z,99.99
2018-07-07T02:33:55.266Z,99.99
2018-07-07T02:34:55.367Z,99.99
2018-07-07T02:35:55.393Z,99.99
2018-07-07T02:36:55.359Z,99.99
2018-07-07T02:37:55.371Z,99.99
2018-07-07T02:38:55.341Z,99.99
2018-07-07T02:39:55.388Z,99.99
2018-07-07T02:40:55.291Z,99.99
2018-07-07T02:41:55.281Z,99.99
2018-07-07T02:42:55.343Z,99.99
2018-07-07T02:43:55.365Z,99.99
2018-07-07T02:44:55.402Z,99.99
2018-07-07T02:45:55.340Z,99.99
2018-07-07T02:46:55.372Z,99.99
2018-07-07T02:47:55.380Z,99.99
2018-07-07T02:48:55.399Z,99.99
2018-07-07T02:49:55.343Z,99.99
2018-07-07T02:50:55.409Z,99.99
2018-07-07T02:51:55.275Z,99.99
2018-07-07T02:52:55.380Z,99.99
2018-07-07T02:53:55.405Z,99.99
2018-07-07T02:54:55.379Z,99.99
2018-07-07T02:55:55.361Z,99.99
2018-07-07T02:56:55.411Z,99.99
2018-07-07T02:57:55.396Z,99.99
2018-07-07T02:58:55.386Z,99.99
2018-07-07T02:59:55.285Z,99.99
2018-07-07T03:00:55.415Z,99.99
2018-07-07T03:01:55.354Z,99.99
2018-07-07T03:02:55.365Z,99.99
2018-07-07T03:03:55.414Z,99.99
2018-07-07T03:04:55.412Z,99.99
2018-07-07T03:05:55.308Z,99.99
2018-07-07T03:06:55.337Z,99.99
2018-07-07T03:07:55.428Z,99.99
2018-07-07T03:08:55.388Z,99.99
2018-07-07T03:09:55.326Z,99.99
2018-07-07T03:10:55.266Z,99.99
2018-07-07T03:11:55.386Z,99.99
2018-07-07T03:12:55.385Z,99.99
2018-07-07T03:13:55.349Z,99.99
2018-07-07T03:14:55.385Z,99.99
2018-07-07T03:15:55.387Z,99.99
2018-07-07T03:16:55.385Z,99.99
2018-07-07T03:17:55.313Z,99.99
2018-07-07T03:18:55.320Z,99.99
2018-07-07T03:19:55.389Z,99.99
2018-07-07T03:20:55.395Z,99.99
2018-07-07T03:21:55.335Z,99.99
2018-07-07T03:22:55.378Z,99.99
2018-07-07T03:23:55.341Z,99.99
2018-07-07T03:24:55.364Z,99.99
2018-07-07T03:25:55.438Z,99.99
2018-07-07T03:26:55.441Z,99.99
2018-07-07T03:27:55.381Z,99.99
2018-07-07T03:28:55.373Z,99.99
2018-07-07T03:29:55.422Z,99.99
2018-07-07T03:30:55.330Z,99.99
2018-07-07T03:31:55.330Z,99.99
2018-07-07T03:32:55.376Z,99.99
2018-07-07T03:33:55.331Z,99.99
2018-07-07T03:34:55.292Z,99.99
2018-07-07T03:35:55.363Z,99.99
2018-07-07T03:36:55.326Z,99.99
2018-07-07T03:37:55.296Z,99.99
2018-07-07T03:38:55.276Z,99.99
2018-07-07T03:39:55.355Z,99.99
2018-07-07T03:40:55.280Z,99.99
2018-07-07T03:41:55.278Z,99.99
2018-07-07T03:42:55.405Z,99.99
2018-07-07T03:43:55.278Z,99.99
2018-07-07T03:44:55.281Z,99.99
2018-07-07T03:45:55.397Z,99.99
2018-07-07T03:46:55.394Z,99.99
2018-07-07T03:47:55.297Z,99.99
2018-07-07T03:48:55.401Z,99.99
2018-07-07T03:49:55.413Z,99.99
2018-07-07T03:50:55.333Z,99.99
2018-07-07T03:51:55.447Z,99.99
2018-07-07T03:52:55.394Z,99.99
2018-07-07T03:53:55.349Z,99.99
2018-07-07T03:54:55.334Z,99.99
2018-07-07T03:55:55.312Z,99.99
2018-07-07T03:56:55.379Z,99.99
2018-07-07T03:57:55.443Z,99.99
2018-07-07T03:58:55.368Z,99.99
2018-07-07T03:59:55.477Z,99.99
2018-07-07T04:00:55.344Z,99.99
2018-07-07T04:01:55.344Z,99.99
2018-07-07T04:02:55.444Z,99.99
2018-07-07T04:03:55.447Z,99.99
2018-07-07T04:04:55.448Z,99.99
2018-07-07T04:05:55.398Z,99.99
2018-07-07T04:06:55.459Z,99.99
2018-07-07T04:07:55.401Z,99.99
2018-07-07T04:08:55.388Z,99.99
2018-07-07T04:09:55.452Z,99.99
2018-07-07T04:10:55.393Z,99.99
2018-07-07T04:11:55.387Z,99.99
2018-07-07T04:12:55.338Z,99.99
2018-07-07T04:13:55.387Z,99.99
2018-07-07T04:14:55.409Z,99.99
2018-07-07T04:15:55.404Z,99.99
2018-07-07T04:16:55.454Z,99.99
2018-07-07T04:17:55.511Z,99.99
2018-07-07T04:18:55.468Z,99.99
2018-07-07T04:19:55.360Z,99.99
2018-07-07T04:20:55.461Z,99.99
2018-07-07T04:21:55.462Z,99.99
2018-07-07T04:22:55.440Z,99.99
2018-07-07T04:23:55.463Z,99.99
2018-07-07T04:24:55.358Z,99.99
2018-07-07T04:25:55.475Z,99.99
2018-07-07T04:26:55.471Z,99.99
2018-07-07T04:27:55.436Z,99.99
2018-07-07T04:28:55.445Z,99.99
2018-07-07T04:29:55.416Z,99.99
2018-07-07T04:30:55.360Z,99.99
2018-07-07T04:31:55.480Z,99.99
2018-07-07T04:32:55.470Z,99.99
2018-07-07T04:33:55.445Z,99.99
2018-07-07T04:34:55.469Z,99.99
2018-07-07T04:35:55.446Z,99.99
2018-07-07T04:36:55.445Z,99.99
2018-07-07T04:37:55.414Z,99.99
2018-07-07T04:38:55.452Z,99.99
2018-07-07T04:39:55.442Z,99.99
2018-07-07T04:40:55.440Z,99.99
2018-07-07T04:41:55.437Z,99.99
2018-07-07T04:42:55.439Z,99.99
2018-07-07T04:43:55.401Z,99.99
2018-07-07T04:44:55.359Z,99.99
2018-07-07T04:45:55.456Z,99.99
2018-07-07T04:46:55.403Z,99.99
2018-07-07T04:47:55.339Z,99.99
2018-07-07T04:48:55.319Z,99.99
2018-07-07T04:49:55.448Z,99.99
2018-07-07T04:50:55.421Z,99.99
2018-07-07T04:51:55.455Z,99.99
2018-07-07T04:52:55.412Z,99.99
2018-07-07T04:53:55.460Z,99.99
2018-07-07T04:54:55.395Z,99.99
2018-07-07T04:55:55.418Z,99.99
2018-07-07T04:56:55.454Z,99.99
2018-07-07T04:57:55.419Z,99.99
2018-07-07T04:58:55.495Z,99.99
2018-07-07T04:59:55.487Z,99.99
2018-07-07T05:00:55.493Z,99.99
2018-07-07T05:01:55.491Z,99.99
2018-07-07T05:02:55.416Z,99.92
2018-07-07T05:03:55.427Z,99.62
2018-07-07T05:04:55.466Z,99.13
2018-07-07T05:05:55.426Z,98.40
2018-07-07T05:06:55.465Z,97.80
2018-07-07T05:07:55.375Z,97.34
2018-07-07T05:08:55.432Z,96.74
2018-07-07T05:09:55.436Z,95.96
2018-07-07T05:10:55.471Z,95.34
2018-07-07T05:11:55.440Z,94.96
2018-07-07T05:12:55.448Z,94.37
2018-07-07T05:13:55.376Z,93.78
2018-07-07T05:14:55.447Z,93.45
2018-07-07T05:15:55.439Z,93.16
2018-07-07T05:16:55.406Z,92.84
2018-07-07T05:17:55.499Z,92.43
2018-07-07T05:18:55.501Z,92.05
2018-07-07T05:19:55.473Z,91.92
2018-07-07T05:20:55.377Z,91.84
2018-07-07T05:21:55.433Z,91.73
2018-07-07T05:22:55.408Z,91.52
2018-07-07T05:23:55.372Z,91.11
2018-07-07T05:24:55.468Z,91.03
2018-07-07T05:25:55.463Z,90.90
2018-07-07T05:26:55.350Z,90.18
2018-07-07T05:27:55.474Z,89.00
2018-07-07T05:28:55.387Z,89.06
2018-07-07T05:29:55.413Z,89.16
2018-07-07T05:30:55.511Z,89.24
2018-07-07T05:31:55.565Z,87.98
2018-07-07T05:32:55.482Z,87.10
2018-07-07T05:33:55.416Z,86.38
2018-07-07T05:34:55.415Z,85.32
2018-07-07T05:35:55.439Z,85.21
2018-07-07T05:36:55.484Z,84.58
2018-07-07T05:37:55.377Z,84.44
2018-07-07T05:38:55.423Z,84.12
2018-07-07T05:39:55.490Z,83.59
2018-07-07T05:40:55.420Z,83.12
2018-07-07T05:41:55.421Z,82.64
2018-07-07T05:42:55.464Z,82.88
2018-07-07T05:43:55.425Z,81.95
2018-07-07T05:44:55.492Z,81.42
2018-07-07T05:45:55.494Z,81.26
2018-07-07T05:46:55.428Z,80.10
2018-07-07T05:47:55.507Z,80.23
2018-07-07T05:48:55.496Z,80.26
2018-07-07T05:49:55.439Z,79.81
2018-07-07T05:50:55.428Z,79.89
2018-07-07T05:51:55.427Z,79.89
2018-07-07T05:52:55.427Z,78.94
2018-07-07T05:53:55.433Z,78.59
2018-07-07T05:54:55.499Z,76.20
2018-07-07T05:55:55.509Z,75.34
2018-07-07T05:56:55.435Z,75.31
2018-07-07T05:57:55.503Z,74.42
2018-07-07T05:58:55.438Z,73.48
2018-07-07T05:59:55.438Z,73.32
2018-07-07T06:00:55.435Z,72.69
2018-07-07T06:01:55.438Z,72.53
2018-07-07T06:02:55.499Z,71.65
2018-07-07T06:03:55.467Z,70.01
2018-07-07T06:04:55.444Z,69.82
2018-07-07T06:05:55.507Z,69.34
2018-07-07T06:06:55.444Z,70.84
2018-07-07T06:07:55.527Z,70.04
2018-07-07T06:08:55.512Z,69.85
2018-07-07T06:09:55.444Z,68.76
2018-07-07T06:10:55.498Z,69.44
2018-07-07T06:11:55.499Z,67.23
2018-07-07T06:12:55.378Z,66.66
2018-07-07T06:13:55.429Z,66.14
2018-07-07T06:14:55.511Z,65.18
2018-07-07T06:15:55.417Z,65.55
2018-07-07T06:16:55.417Z,64.85
2018-07-07T06:17:55.419Z,66.22
2018-07-07T06:18:55.463Z,64.90
2018-07-07T06:19:55.510Z,64.90
2018-07-07T06:20:55.513Z,64.82
2018-07-07T06:21:55.516Z,64.93
2018-07-07T06:22:55.517Z,63.87
2018-07-07T06:23:55.448Z,65.62
2018-07-07T06:24:55.519Z,64.00
2018-07-07T06:25:55.519Z,63.30
2018-07-07T06:26:55.454Z,63.49
2018-07-07T06:27:55.520Z,63.62
2018-07-07T06:28:55.495Z,63.74
2018-07-07T06:29:55.459Z,64.90
2018-07-07T06:30:55.520Z,63.05
2018-07-07T06:31:55.510Z,62.61
2018-07-07T06:32:55.457Z,62.40
2018-07-07T06:33:55.506Z,63.02
2018-07-07T06:34:55.413Z,61.48
2018-07-07T06:35:55.515Z,62.53
2018-07-07T06:36:55.516Z,62.87
2018-07-07T06:37:55.448Z,62.10
2018-07-07T06:38:55.412Z,62.12
2018-07-07T06:39:55.435Z,61.53
2018-07-07T06:40:55.553Z,62.79
2018-07-07T06:41:55.495Z,63.20
2018-07-07T06:42:55.504Z,62.99
2018-07-07T06:43:55.510Z,63.98
2018-07-07T06:44:55.494Z,64.62
2018-07-07T06:45:55.531Z,65.39
2018-07-07T06:46:55.438Z,65.78
2018-07-07T06:47:55.451Z,66.14
2018-07-07T06:48:55.435Z,65.76
2018-07-07T06:49:55.473Z,66.66
2018-07-07T06:50:55.526Z,67.54
2018-07-07T06:51:55.521Z,66.77
2018-07-07T06:52:55.499Z,66.14
2018-07-07T06:53:55.569Z,66.77
2018-07-07T06:54:55.401Z,66.33
2018-07-07T06:55:55.567Z,65.81
2018-07-07T06:56:55.473Z,66.37
2018-07-07T06:57:55.524Z,66.45
2018-07-07T06:58:55.473Z,66.71
2018-07-07T06:59:55.433Z,65.99
2018-07-07T07:00:55.449Z,65.81
2018-07-07T07:01:55.479Z,64.75
2018-07-07T07:02:55.433Z,64.42
2018-07-07T07:03:55.500Z,64.62
2018-07-07T07:04:55.499Z,64.31
2018-07-07T07:05:55.453Z,63.54
2018-07-07T07:06:55.544Z,62.99
2018-07-07T07:07:55.478Z,62.79
2018-07-07T07:08:55.453Z,62.94
2018-07-07T07:09:55.536Z,64.10
2018-07-07T07:10:55.549Z,64.08
2018-07-07T07:11:55.535Z,64.93
2018-07-07T07:12:55.568Z,64.31
2018-07-07T07:13:55.510Z,63.98
2018-07-07T07:14:55.461Z,63.90
2018-07-07T07:15:55.548Z,63.41
2018-07-07T07:16:55.584Z,63.46
2018-07-07T07:17:55.549Z,62.20
2018-07-07T07:18:55.571Z,62.18
2018-07-07T07:19:55.611Z,60.05
2018-07-07T07:20:55.582Z,60.63
2018-07-07T07:21:55.582Z,60.48
2018-07-07T07:22:55.567Z,62.12
2018-07-07T07:23:55.562Z,61.66
2018-07-07T07:24:55.574Z,62.94
2018-07-07T07:25:55.624Z,62.12
2018-07-07T07:26:55.554Z,64.75
2018-07-07T07:27:55.463Z,63.92
2018-07-07T07:28:55.539Z,61.74
2018-07-07T07:29:55.566Z,62.90
2018-07-07T07:30:55.537Z,62.40
2018-07-07T07:31:55.470Z,60.97
2018-07-07T07:32:55.526Z,61.43
2018-07-07T07:33:55.590Z,62.48
2018-07-07T07:34:55.565Z,62.56
2018-07-07T07:35:55.524Z,62.10
2018-07-07T07:36:55.477Z,62.12
2018-07-07T07:37:55.603Z,62.04
2018-07-07T07:38:55.478Z,60.89
2018-07-07T07:39:55.544Z,62.10
2018-07-07T07:40:55.570Z,61.22
2018-07-07T07:41:55.526Z,60.53
2018-07-07T07:42:55.564Z,60.94
2018-07-07T07:43:55.534Z,61.17
2018-07-07T07:44:55.494Z,59.28
2018-07-07T07:45:55.510Z,59.07
2018-07-07T07:46:55.545Z,60.63
2018-07-07T07:47:55.543Z,60.43
2018-07-07T07:48:55.471Z,59.97
2018-07-07T07:49:55.543Z,58.74
2018-07-07T07:50:55.607Z,60.05
2018-07-07T07:51:55.546Z,60.58
2018-07-07T07:52:55.616Z,60.50
2018-07-07T07:53:55.475Z,59.07
2018-07-07T07:54:55.534Z,58.79
2018-07-07T07:55:55.516Z,57.92
2018-07-07T07:56:55.536Z,57.46
2018-07-07T07:57:55.547Z,56.41
2018-07-07T07:58:55.558Z,55.60
2018-07-07T07:59:55.603Z,54.86
2018-07-07T08:00:55.594Z,55.83
2018-07-07T08:01:55.492Z,56.33
2018-07-07T08:02:55.608Z,58.17
2018-07-07T08:03:55.483Z,58.71
2018-07-07T08:04:55.692Z,57.21
2018-07-07T08:05:55.489Z,58.02
2018-07-07T08:06:55.603Z,55.32
2018-07-07T08:07:55.511Z,56.52
2018-07-07T08:08:55.556Z,52.98
2018-07-07T08:09:55.539Z,54.89
2018-07-07T08:10:55.587Z,54.83
2018-07-07T08:11:55.523Z,55.17
2018-07-07T08:12:55.591Z,55.24
2018-07-07T08:13:55.534Z,53.92
2018-07-07T08:14:55.527Z,55.22
2018-07-07T08:15:55.484Z,55.47
2018-07-07T08:16:55.526Z,54.99
2018-07-07T08:17:55.590Z,56.95
2018-07-07T08:18:55.529Z,55.98
2018-07-07T08:19:55.528Z,56.93
2018-07-07T08:20:55.626Z,57.54
2018-07-07T08:21:55.582Z,57.33
2018-07-07T08:22:55.626Z,58.17
2018-07-07T08:23:55.601Z,58.12
2018-07-07T08:24:55.507Z,58.48
2018-07-07T08:25:55.557Z,57.99
2018-07-07T08:26:55.553Z,57.56
2018-07-07T08:27:55.508Z,58.40
2018-07-07T08:28:55.641Z,57.84
2018-07-07T08:29:55.628Z,58.46
2018-07-07T08:30:55.621Z,59.32
2018-07-07T08:31:55.589Z,58.87
2018-07-07T08:32:55.493Z,58.25
2018-07-07T08:33:55.603Z,58.38
2018-07-07T08:34:55.553Z,58.07
2018-07-07T08:35:55.586Z,58.27
2018-07-07T08:36:55.553Z,58.84
2018-07-07T08:37:55.533Z,57.92
2018-07-07T08:38:55.556Z,58.81
2018-07-07T08:39:55.593Z,56.52
2018-07-07T08:40:55.597Z,56.69
2018-07-07T08:41:55.583Z,57.87
2018-07-07T08:42:55.602Z,56.49
2018-07-07T08:43:55.520Z,56.54
2018-07-07T08:44:55.548Z,56.39
2018-07-07T08:45:55.546Z,56.54
2018-07-07T08:46:55.518Z,56.74
2018-07-07T08:47:55.567Z,57.00
2018-07-07T08:48:55.604Z,57.84
2018-07-07T08:49:55.607Z,57.21
2018-07-07T08:50:55.479Z,58.15
2018-07-07T08:51:55.550Z,58.40
2018-07-07T08:52:55.616Z,58.07
2018-07-07T08:53:55.618Z,58.10
2018-07-07T08:54:55.553Z,57.66
2018-07-07T08:55:55.553Z,56.97
2018-07-07T08:56:55.618Z,57.36
2018-07-07T08:57:55.558Z,57.95
2018-07-07T08:58:55.621Z,58.02
2018-07-07T08:59:55.617Z,57.54
2018-07-07T09:00:55.556Z,56.41
2018-07-07T09:01:55.627Z,57.21
2018-07-07T09:02:55.623Z,57.46
2018-07-07T09:03:55.622Z,57.33
2018-07-07T09:04:55.565Z,56.08
2018-07-07T09:05:55.648Z,56.33
2018-07-07T09:06:55.549Z,56.87
2018-07-07T09:07:55.649Z,57.02
2018-07-07T09:08:55.558Z,57.08
2018-07-07T09:09:55.562Z,57.10
2018-07-07T09:10:55.631Z,57.00
2018-07-07T09:11:55.566Z,56.65
2018-07-07T09:12:55.628Z,56.44
2018-07-07T09:13:55.632Z,55.42
2018-07-07T09:14:55.630Z,55.65
2018-07-07T09:15:55.570Z,55.02
2018-07-07T09:16:55.634Z,55.83
2018-07-07T09:17:55.569Z,54.66
2018-07-07T09:18:55.662Z,55.35
2018-07-07T09:19:55.530Z,54.50
2018-07-07T09:20:55.641Z,55.22
2018-07-07T09:21:55.619Z,54.48
2018-07-07T09:22:55.671Z,52.90
2018-07-07T09:23:55.577Z,52.37
2018-07-07T09:24:55.637Z,54.20
2018-07-07T09:25:55.601Z,53.69
2018-07-07T09:26:55.617Z,54.33
2018-07-07T09:27:55.561Z,52.90
2018-07-07T09:28:55.660Z,51.71
2018-07-07T09:29:55.670Z,51.74
2018-07-07T09:30:55.786Z,53.11
2018-07-07T09:31:55.709Z,51.95
2018-07-07T09:32:55.649Z,51.64
2018-07-07T09:33:55.641Z,51.66
2018-07-07T09:34:55.647Z,51.59
2018-07-07T09:35:55.578Z,51.99
2018-07-07T09:36:55.662Z,51.16
2018-07-07T09:37:55.579Z,52.78
2018-07-07T09:38:55.647Z,51.41
2018-07-07T09:39:55.586Z,51.31
2018-07-07T09:40:55.647Z,51.26
2018-07-07T09:41:55.614Z,51.66
2018-07-07T09:42:55.571Z,51.39
2018-07-07T09:43:55.625Z,50.86
2018-07-07T09:44:55.619Z,51.21
2018-07-07T09:45:55.613Z,51.71
2018-07-07T09:46:55.625Z,51.74
2018-07-07T09:47:55.611Z,51.29
2018-07-07T09:48:55.680Z,51.21
2018-07-07T09:49:55.636Z,50.58
2018-07-07T09:50:55.624Z,50.10
2018-07-07T09:51:55.556Z,48.51
2018-07-07T09:52:55.620Z,49.75
2018-07-07T09:53:55.558Z,50.10
2018-07-07T09:54:55.623Z,49.95
2018-07-07T09:55:55.654Z,49.27
2018-07-07T09:56:55.696Z,49.82
2018-07-07T09:57:55.569Z,49.32
2018-07-07T09:58:55.640Z,49.52
2018-07-07T09:59:55.564Z,49.09
2018-07-07T10:00:55.646Z,48.03
2018-07-07T10:01:55.695Z,47.98
2018-07-07T10:02:55.698Z,48.51
2018-07-07T10:03:55.565Z,47.00
2018-07-07T10:04:55.633Z,49.12
2018-07-07T10:05:55.692Z,46.90
2018-07-07T10:06:55.637Z,45.75
2018-07-07T10:07:55.588Z,48.06
2018-07-07T10:08:55.695Z,48.48
2018-07-07T10:09:55.718Z,48.11
2018-07-07T10:10:55.708Z,49.27
2018-07-07T10:11:55.615Z,49.14
2018-07-07T10:12:55.599Z,47.61
2018-07-07T10:13:55.608Z,47.73
2018-07-07T10:14:55.674Z,47.88
2018-07-07T10:15:55.604Z,47.73
2018-07-07T10:16:55.678Z,48.48
2018-07-07T10:17:55.767Z,46.40
2018-07-07T10:18:55.613Z,46.60
2018-07-07T10:19:55.613Z,46.93
2018-07-07T10:20:55.691Z,48.56
2018-07-07T10:21:55.675Z,48.21
2018-07-07T10:22:55.699Z,47.38
2018-07-07T10:23:55.708Z,48.51
2018-07-07T10:24:55.616Z,48.36
2018-07-07T10:25:55.645Z,47.20
2018-07-07T10:26:55.697Z,48.06
2018-07-07T10:27:55.654Z,48.11
2018-07-07T10:28:55.719Z,48.23
2018-07-07T10:29:55.643Z,48.08
2018-07-07T10:30:55.582Z,49.22
2018-07-07T10:31:55.554Z,48.23
2018-07-07T10:32:55.577Z,48.54
2018-07-07T10:33:55.634Z,47.38
2018-07-07T10:34:55.647Z,48.64
2018-07-07T10:35:55.546Z,48.01
2018-07-07T10:36:55.668Z,48.01
2018-07-07T10:37:55.561Z,47.06
2018-07-07T10:38:55.575Z,46.88
2018-07-07T10:39:55.579Z,45.80
2018-07-07T10:40:55.571Z,46.30
2018-07-07T10:41:55.620Z,47.53
2018-07-07T10:42:55.689Z,46.10
2018-07-07T10:43:55.625Z,46.50
2018-07-07T10:44:55.624Z,47.03
2018-07-07T10:45:56.045Z,46.83
2018-07-07T10:46:55.727Z,45.77
2018-07-07T10:47:55.617Z,47.03
2018-07-07T10:48:55.763Z,46.50
2018-07-07T10:49:55.631Z,46.98
2018-07-07T10:50:55.694Z,45.45
2018-07-07T10:51:55.690Z,45.93
2018-07-07T10:52:55.751Z,49.47
2018-07-07T10:53:55.604Z,43.35
2018-07-07T10:54:55.660Z,42.53
2018-07-07T10:55:55.732Z,44.35
2018-07-07T10:56:55.677Z,43.92
2018-07-07T10:57:55.656Z,43.08
2018-07-07T10:58:55.677Z,44.15
2018-07-07T10:59:55.682Z,44.45
2018-07-07T11:00:55.726Z,44.12
2018-07-07T11:01:55.729Z,47.08
2018-07-07T11:02:55.747Z,43.70
2018-07-07T11:03:55.705Z,45.90
2018-07-07T11:04:55.739Z,45.87
2018-07-07T11:05:55.730Z,44.87
2018-07-07T11:06:55.669Z,45.82
2018-07-07T11:07:55.747Z,44.80
2018-07-07T11:08:55.675Z,45.98
2018-07-07T11:09:55.747Z,47.81
2018-07-07T11:10:55.744Z,45.65
2018-07-07T11:11:55.780Z,45.90
2018-07-07T11:12:55.736Z,46.52
2018-07-07T11:13:55.737Z,44.68
2018-07-07T11:14:55.665Z,43.17
2018-07-07T11:15:55.665Z,44.55
2018-07-07T11:16:55.786Z,46.23
2018-07-07T11:17:55.615Z,44.55
2018-07-07T11:18:55.693Z,45.02
2018-07-07T11:19:55.763Z,45.32
2018-07-07T11:20:55.720Z,45.10
2018-07-07T11:21:55.749Z,45.80
2018-07-07T11:22:55.807Z,45.37
2018-07-07T11:23:55.601Z,45.40
2018-07-07T11:24:55.651Z,45.77
2018-07-07T11:25:55.719Z,45.68
2018-07-07T11:26:55.720Z,45.32
2018-07-07T11:27:55.655Z,44.75
2018-07-07T11:28:55.721Z,45.75
2018-07-07T11:29:55.656Z,45.60
2018-07-07T11:30:55.725Z,46.88
2018-07-07T11:31:55.656Z,46.00
2018-07-07T11:32:55.657Z,45.90
2018-07-07T11:33:55.667Z,44.20
2018-07-07T11:34:55.729Z,44.93
2018-07-07T11:35:55.725Z,45.22
2018-07-07T11:36:55.819Z,47.13
2018-07-07T11:37:55.664Z,45.98
2018-07-07T11:38:55.663Z,46.85
2018-07-07T11:39:55.755Z,45.22
2018-07-07T11:40:55.728Z,43.42
2018-07-07T11:41:55.732Z,47.00
2018-07-07T11:42:55.711Z,44.82
2018-07-07T11:43:55.673Z,43.70
2018-07-07T11:44:55.656Z,43.45
2018-07-07T11:45:55.640Z,45.35
2018-07-07T11:46:55.703Z,45.68
2018-07-07T11:47:55.701Z,46.73
2018-07-07T11:48:55.732Z,46.78
2018-07-07T11:49:55.701Z,46.12
2018-07-07T11:50:55.692Z,47.26
2018-07-07T11:51:55.701Z,46.88
2018-07-07T11:52:55.705Z,45.68
2018-07-07T11:53:55.744Z,45.77
2018-07-07T11:54:55.636Z,44.55
2018-07-07T11:55:55.777Z,45.22
2018-07-07T11:56:55.743Z,45.43
2018-07-07T11:57:55.679Z,44.07
2018-07-07T11:58:55.667Z,45.18
2018-07-07T11:59:55.719Z,44.05
2018-07-07T12:00:55.776Z,44.87
2018-07-07T12:01:55.764Z,43.63
2018-07-07T12:02:55.776Z,42.45
2018-07-07T12:03:55.752Z,43.20
2018-07-07T12:04:55.767Z,42.95
2018-07-07T12:05:55.748Z,43.95
2018-07-07T12:06:55.754Z,42.78
2018-07-07T12:08:00.832Z,43.27
2018-07-07T12:08:55.698Z,43.25
2018-07-07T12:09:55.683Z,44.82
2018-07-07T12:10:55.750Z,43.17
2018-07-07T12:11:55.750Z,43.05
2018-07-07T12:12:55.716Z,42.10
2018-07-07T12:13:55.657Z,45.15
2018-07-07T12:14:55.727Z,44.77
2018-07-07T12:15:55.656Z,45.30
2018-07-07T12:16:55.662Z,44.05
2018-07-07T12:17:55.784Z,41.82
2018-07-07T12:18:55.716Z,45.20
2018-07-07T12:19:55.721Z,41.21
2018-07-07T12:20:55.694Z,43.45
2018-07-07T12:21:55.727Z,42.95
2018-07-07T12:22:55.790Z,43.33
2018-07-07T12:23:55.792Z,43.85
2018-07-07T12:24:55.736Z,40.91
2018-07-07T12:25:55.796Z,42.05
2018-07-07T12:26:55.703Z,42.40
2018-07-07T12:27:55.738Z,42.05
2018-07-07T12:28:55.722Z,42.40
2018-07-07T12:29:55.768Z,41.21
2018-07-07T12:30:55.784Z,44.95
2018-07-07T12:31:55.737Z,42.42
2018-07-07T12:32:55.739Z,45.40
2018-07-07T12:33:55.764Z,41.73
2018-07-07T12:34:55.902Z,40.56
2018-07-07T12:35:55.665Z,40.85
2018-07-07T12:36:55.766Z,42.28
2018-07-07T12:37:55.668Z,42.08
2018-07-07T12:38:55.678Z,40.83
2018-07-07T12:39:55.781Z,41.61
2018-07-07T12:40:55.741Z,41.03
2018-07-07T12:41:55.708Z,41.61
2018-07-07T12:42:55.705Z,41.58
2018-07-07T12:43:55.776Z,41.65
2018-07-07T12:44:55.706Z,41.73
2018-07-07T12:45:55.803Z,41.10
2018-07-07T12:46:55.710Z,42.08
2018-07-07T12:47:55.702Z,41.40
2018-07-07T12:48:55.777Z,42.30
2018-07-07T12:49:55.778Z,40.91
2018-07-07T12:50:55.708Z,42.42
2018-07-07T12:51:55.865Z,40.68
2018-07-07T12:52:55.798Z,41.40